Time;durP1;ratioP1;P1;durP2;ratioP2;P2;SDS_P1;SDS_P2;PMS_P1;PMS_P2;Temp;Humidity;BMP_temperature;BMP_pressure;BME280_temperature;BME280_humidity;BME280_pressure;Samples;Min_cycle;Max_cycle;Signal;HPM_P1;HPM_P2
2023/06/16 00:00:50;;;;;;;;;;;;;;;14.44;89.87;99019.86;107852;1308;22449;-42
2023/06/16 00:03:16;;;;;;;;;;;;;;;14.43;90.56;99023.48;107872;1308;23374;-42
2023/06/16 00:05:43;;;;;;;;;;;;;;;14.40;91.18;99018.73;107833;1308;22447;-41
2023/06/16 00:08:09;;;;;;;;;;;;;;;14.39;91.27;99022.88;107843;1308;22445;-43
2023/06/16 00:10:34;;;;;;;;;;;;;;;14.38;90.76;99027.54;107881;1308;22425;-43
2023/06/16 00:12:59;;;;;;;;;;;;;;;14.36;91.47;99026.92;107846;1308;22532;-42
2023/06/16 00:15:24;;;;;;;;;;;;;;;14.34;91.74;99029.04;107825;1308;22444;-42
2023/06/16 00:17:50;;;;;;;;;;;;;;;14.32;91.55;99027.23;107882;1308;22503;-42
2023/06/16 00:20:19;;;;;;;;;;;;;;;14.32;90.63;99022.66;107895;1308;22532;-42
2023/06/16 00:22:47;;;;;;;;;;;;;;;14.33;89.29;99024.36;107846;1308;23746;-43
2023/06/16 00:25:13;;;;;;;;;;;;;;;14.31;89.36;99024.34;107843;1308;22474;-43
2023/06/16 00:27:38;;;;;;;;;;;;;;;14.30;90.26;99023.50;107855;1308;22424;-43
2023/06/16 00:30:04;;;;;;;;;;;;;;;14.30;90.56;99021.80;107846;1307;23178;-43
2023/06/16 00:32:29;;;;;;;;;;;;;;;14.30;89.93;99024.97;107837;1308;22415;-44
2023/06/16 00:34:55;;;;;;;;;;;;;;;14.30;89.35;99023.19;107833;1308;22435;-42
2023/06/16 00:37:20;;;;;;;;;;;;;;;14.28;89.79;99019.48;107833;1308;23251;-44
2023/06/16 00:39:45;;;;;;;;;;;;;;;14.27;89.21;99021.45;107859;1308;23227;-42
2023/06/16 00:42:10;;;;;;;;;;;;;;;14.28;89.26;99022.48;107852;1308;22440;-42
2023/06/16 00:44:36;;;;;;;;;;;;;;;14.26;88.63;99021.38;107842;1308;22507;-42
2023/06/16 00:47:01;;;;;;;;;;;;;;;14.24;88.64;99018.53;107829;1308;23168;-42
2023/06/16 00:49:27;;;;;;;;;;;;;;;14.21;89.13;99013.61;107855;1308;22516;-43
2023/06/16 00:51:52;;;;;;;;;;;;;;;14.22;88.78;99010.91;107845;1307;22512;-42
2023/06/16 00:54:17;;;;;;;;;;;;;;;14.20;89.00;99009.27;107857;1308;22500;-42
2023/06/16 00:56:43;;;;;;;;;;;;;;;14.20;89.00;99008.71;107849;1308;22420;-42
2023/06/16 00:59:09;;;;;;;;;;;;;;;14.18;89.21;99004.63;107857;1298;22418;-42
2023/06/16 01:01:34;;;;;;;;;;;;;;;14.17;89.01;99000.32;107837;1308;22408;-42
2023/06/16 01:04:00;;;;;;;;;;;;;;;14.17;88.56;99002.05;107835;1308;22452;-42
2023/06/16 01:06:25;;;;;;;;;;;;;;;14.17;88.80;98996.95;107857;1308;23225;-42
2023/06/16 01:08:54;;;;;;;;;;;;;;;14.12;88.35;98994.20;107857;1308;23137;-43
2023/06/16 01:11:32;;;;;;;;;;;;;;;14.10;88.54;98995.39;107853;1308;23306;-42
2023/06/16 01:14:14;;;;;;;;;;;;;;;14.09;88.62;98994.10;107872;1308;23284;-42
2023/06/16 01:16:41;;;;;;;;;;;;;;;14.07;89.44;98990.70;107866;1286;22435;-43
2023/06/16 01:19:13;;;;;;;;;;;;;;;14.06;89.69;98988.48;107859;1308;23567;-42
2023/06/16 01:21:57;;;;;;;;;;;;;;;14.06;89.51;98989.39;107855;1308;22469;-42
2023/06/16 01:24:23;;;;;;;;;;;;;;;14.03;89.77;98988.90;107848;1308;22438;-41
2023/06/16 01:26:52;;;;;;;;;;;;;;;14.00;90.39;98988.17;107854;1308;22427;-42
2023/06/16 01:29:21;;;;;;;;;;;;;;;13.99;90.34;98985.13;107859;1308;22419;-42
2023/06/16 01:31:48;;;;;;;;;;;;;;;13.97;90.74;98985.60;107841;1308;23166;-42
2023/06/16 01:34:14;;;;;;;;;;;;;;;13.95;91.07;98983.65;107852;1308;22416;-42
2023/06/16 01:36:40;;;;;;;;;;;;;;;13.94;90.71;98983.23;107855;1308;22438;-43
2023/06/16 01:39:07;;;;;;;;;;;;;;;13.85;89.99;98985.63;107855;1308;22424;-43
2023/06/16 01:41:32;;;;;;;;;;;;;;;13.80;89.24;98988.63;107839;1308;22417;-43
2023/06/16 01:43:58;;;;;;;;;;;;;;;13.77;89.84;98986.20;107847;1308;22428;-42
2023/06/16 01:46:24;;;;;;;;;;;;;;;13.77;90.81;98989.92;107842;1308;23124;-42
2023/06/16 01:48:50;;;;;;;;;;;;;;;13.77;90.99;98988.48;107857;1308;22427;-43
2023/06/16 01:51:15;;;;;;;;;;;;;;;13.78;91.43;98986.66;107857;1308;22497;-42
2023/06/16 01:53:41;;;;;;;;;;;;;;;13.77;91.07;98989.15;107842;1308;22462;-42
2023/06/16 01:56:06;;;;;;;;;;;;;;;13.77;92.32;98984.45;107832;1308;22544;-42
2023/06/16 01:58:32;;;;;;;;;;;;;;;13.75;91.77;98988.08;107854;1308;22431;-42
2023/06/16 02:01:23;;;;;;;;;;;;;;;13.73;91.15;98990.02;107880;1308;23268;-42
2023/06/16 02:04:04;;;;;;;;;;;;;;;13.71;91.84;98993.14;107835;1308;22476;-42
2023/06/16 02:06:32;;;;;;;;;;;;;;;13.69;91.57;98990.52;107862;1308;22435;-42
2023/06/16 02:08:59;;;;;;;;;;;;;;;13.64;91.51;98992.22;107860;1308;22433;-43
2023/06/16 02:11:25;;;;;;;;;;;;;;;13.61;92.96;98991.08;107848;1308;23559;-42
2023/06/16 02:13:50;;;;;;;;;;;;;;;13.60;93.47;98990.27;107845;1308;22431;-43
2023/06/16 02:16:18;;;;;;;;;;;;;;;13.60;93.24;98991.11;107851;1308;22577;-42
2023/06/16 02:18:43;;;;;;;;;;;;;;;13.61;92.13;98993.17;107858;1308;23058;-43
2023/06/16 02:21:09;;;;;;;;;;;;;;;13.60;91.96;98991.48;107863;1308;23189;-43
2023/06/16 02:23:34;;;;;;;;;;;;;;;13.60;92.49;98990.11;107846;1308;22467;-43
2023/06/16 02:25:59;;;;;;;;;;;;;;;13.60;93.19;98993.78;107852;1292;22458;-42
2023/06/16 02:28:25;;;;;;;;;;;;;;;13.60;92.51;98990.92;107867;1308;22485;-43
2023/06/16 02:30:50;;;;;;;;;;;;;;;13.61;91.84;98989.47;107839;1308;22528;-42
2023/06/16 02:33:15;;;;;;;;;;;;;;;13.62;92.32;98990.96;107851;1308;22471;-42
2023/06/16 02:35:41;;;;;;;;;;;;;;;13.64;92.58;98991.40;107856;1308;23322;-42
2023/06/16 02:38:07;;;;;;;;;;;;;;;13.65;92.04;98988.86;107842;1308;22487;-42
2023/06/16 02:40:32;;;;;;;;;;;;;;;13.66;91.68;98987.41;107878;1308;22424;-42
2023/06/16 02:42:57;;;;;;;;;;;;;;;13.67;91.80;98991.71;107840;1308;23235;-42
2023/06/16 02:45:22;;;;;;;;;;;;;;;13.68;91.89;98997.11;107848;1308;22514;-42
2023/06/16 02:47:48;;;;;;;;;;;;;;;13.67;91.86;98992.39;107849;1308;22413;-42
2023/06/16 02:50:13;;;;;;;;;;;;;;;13.68;91.94;98996.69;107839;1308;22443;-42
2023/06/16 02:52:41;;;;;;;;;;;;;;;13.68;91.90;98999.70;107851;1308;22429;-42
2023/06/16 02:56:49;;;;;;;;;;;;;;;13.71;92.49;99000.00;106814;1305;544617;-41
2023/06/16 02:59:14;;;;;;;;;;;;;;;13.69;92.23;98998.59;107498;1311;22483;-41
2023/06/16 03:01:40;;;;;;;;;;;;;;;13.70;91.75;99002.06;107502;1311;22774;-42
2023/06/16 03:04:05;;;;;;;;;;;;;;;13.71;91.23;99001.58;107481;1311;22503;-41
2023/06/16 03:06:34;;;;;;;;;;;;;;;13.73;91.09;99001.80;107498;1311;23278;-41
2023/06/16 03:08:59;;;;;;;;;;;;;;;13.73;91.65;99000.20;107515;1311;22468;-41
2023/06/16 03:11:24;;;;;;;;;;;;;;;13.73;91.89;98998.63;107568;1309;170841;-41
2023/06/16 03:13:50;;;;;;;;;;;;;;;13.73;91.88;98996.20;107714;1309;22550;-42
2023/06/16 03:16:16;;;;;;;;;;;;;;;13.74;92.33;98993.80;107725;1309;23320;-41
2023/06/16 03:18:42;;;;;;;;;;;;;;;13.75;91.94;98994.10;107731;1309;22925;-42
2023/06/16 03:21:07;;;;;;;;;;;;;;;13.75;92.61;98989.65;107731;1309;22494;-41
2023/06/16 03:23:32;;;;;;;;;;;;;;;13.77;92.70;98985.34;107715;1309;22523;-41
2023/06/16 03:25:58;;;;;;;;;;;;;;;13.76;92.56;98987.86;107723;1309;23240;-41
2023/06/16 03:28:23;;;;;;;;;;;;;;;13.77;92.44;98988.11;107727;1309;23234;-42
2023/06/16 03:30:52;;;;;;;;;;;;;;;13.80;92.29;98989.52;107719;1309;22451;-41
2023/06/16 03:33:17;;;;;;;;;;;;;;;13.83;91.97;98992.83;107738;1309;22459;-41
2023/06/16 03:35:42;;;;;;;;;;;;;;;13.85;92.25;98994.77;107713;1309;23220;-42
2023/06/16 03:38:08;;;;;;;;;;;;;;;13.87;92.35;98991.67;107707;1309;24570;-42
2023/06/16 03:40:33;;;;;;;;;;;;;;;13.89;92.37;98998.38;107711;1292;22472;-42
2023/06/16 03:42:58;;;;;;;;;;;;;;;13.92;92.60;98998.37;107717;1309;22460;-42
2023/06/16 03:45:23;;;;;;;;;;;;;;;13.94;92.37;98998.02;107729;1310;23166;-42
2023/06/16 03:47:48;;;;;;;;;;;;;;;13.95;92.19;99000.18;107735;1309;22534;-42
2023/06/16 03:50:13;;;;;;;;;;;;;;;13.96;92.09;99002.27;107740;1309;22471;-42
2023/06/16 03:52:39;;;;;;;;;;;;;;;13.97;92.26;99001.10;107700;1309;22458;-42
2023/06/16 03:55:05;;;;;;;;;;;;;;;14.00;92.16;98998.81;107732;1309;22731;-41
2023/06/16 03:57:30;;;;;;;;;;;;;;;14.01;92.28;99001.88;107733;1309;22469;-42
2023/06/16 03:59:55;;;;;;;;;;;;;;;14.02;91.68;99002.50;107735;1309;23087;-42
2023/06/16 04:02:21;;;;;;;;;;;;;;;14.04;91.49;99001.35;107717;1309;22526;-42
2023/06/16 04:04:47;;;;;;;;;;;;;;;14.05;92.11;99002.27;107748;1309;22455;-41
2023/06/16 04:07:12;;;;;;;;;;;;;;;14.07;92.14;99006.02;107736;1309;22417;-42
2023/06/16 04:09:38;;;;;;;;;;;;;;;14.10;92.29;99000.17;107695;1309;23122;-42
2023/06/16 04:12:03;;;;;;;;;;;;;;;14.12;92.06;99000.65;107704;1309;22476;-42
2023/06/16 04:14:29;;;;;;;;;;;;;;;14.15;91.21;99001.34;107715;1309;22674;-41
2023/06/16 04:16:54;;;;;;;;;;;;;;;14.17;91.55;99002.78;107722;1309;22472;-42
2023/06/16 04:19:19;;;;;;;;;;;;;;;14.22;90.72;99002.81;107708;1309;22475;-41
2023/06/16 04:21:44;;;;;;;;;;;;;;;14.26;90.79;99004.80;107686;1309;22535;-43
2023/06/16 04:24:10;;;;;;;;;;;;;;;14.29;90.82;99003.90;107727;1309;22450;-43
2023/06/16 04:26:35;;;;;;;;;;;;;;;14.28;90.98;99003.07;107697;1309;22517;-41
2023/06/16 04:29:03;;;;;;;;;;;;;;;14.29;90.87;99002.14;107913;1308;22526;-41
2023/06/16 04:31:31;;;;;;;;;;;;;;;14.30;90.84;99006.09;107907;1308;22462;-42
2023/06/16 04:33:57;;;;;;;;;;;;;;;14.31;91.09;99005.80;107911;1308;22460;-43
2023/06/16 04:36:25;;;;;;;;;;;;;;;14.33;91.65;99004.58;107925;1308;22492;-42
2023/06/16 04:38:50;;;;;;;;;;;;;;;14.37;92.01;99006.63;107930;1308;22456;-42
2023/06/16 04:41:15;;;;;;;;;;;;;;;14.41;91.86;99003.85;107942;1308;22467;-42
2023/06/16 04:43:41;;;;;;;;;;;;;;;14.44;91.35;98996.55;107916;1308;25308;-43
2023/06/16 04:46:06;;;;;;;;;;;;;;;14.49;91.32;98993.54;107916;1308;22449;-43
2023/06/16 04:48:31;;;;;;;;;;;;;;;14.52;91.36;98991.36;107914;1308;23497;-43
2023/06/16 04:50:59;;;;;;;;;;;;;;;14.54;91.27;98993.09;107894;1308;22455;-43
2023/06/16 04:53:25;;;;;;;;;;;;;;;14.58;91.32;98993.41;107911;1308;23185;-42
2023/06/16 04:55:50;;;;;;;;;;;;;;;14.62;91.46;98993.62;107924;1308;22499;-41
2023/06/16 04:58:15;;;;;;;;;;;;;;;14.68;90.83;98999.19;107912;1308;22480;-42
2023/06/16 05:00:41;;;;;;;;;;;;;;;14.72;90.81;98993.04;107827;1305;22499;-42
2023/06/16 05:03:06;;;;;;;;;;;;;;;14.77;90.43;98994.60;107803;1308;22460;-42
2023/06/16 05:05:32;;;;;;;;;;;;;;;14.83;90.17;98999.95;107794;1308;23227;-43
2023/06/16 05:07:57;;;;;;;;;;;;;;;14.87;89.86;98997.86;107794;1308;23311;-42
2023/06/16 05:10:22;;;;;;;;;;;;;;;14.91;90.28;99000.58;107821;1308;23164;-42
2023/06/16 05:12:47;;;;;;;;;;;;;;;14.95;90.50;98999.34;107805;1308;23249;-43
2023/06/16 05:15:13;;;;;;;;;;;;;;;15.03;90.13;98998.10;107824;1308;22468;-42
2023/06/16 05:17:38;;;;;;;;;;;;;;;15.07;90.45;98999.19;107810;1308;23235;-42
2023/06/16 05:20:03;;;;;;;;;;;;;;;15.11;90.29;98999.55;107784;1308;22478;-42
2023/06/16 05:22:28;;;;;;;;;;;;;;;15.15;89.93;99003.25;107802;1308;22474;-42
2023/06/16 05:24:54;;;;;;;;;;;;;;;15.21;89.64;99005.27;107802;1308;22460;-42
2023/06/16 05:27:23;;;;;;;;;;;;;;;15.28;89.86;99004.95;107753;1308;22448;-42
2023/06/16 05:29:50;;;;;;;;;;;;;;;15.33;89.50;99009.13;107800;1308;23200;-42
2023/06/16 05:32:15;;;;;;;;;;;;;;;15.40;89.09;99004.35;107805;1308;23221;-42
2023/06/16 05:34:40;;;;;;;;;;;;;;;15.46;88.71;99002.45;107814;1308;22558;-42
2023/06/16 05:37:05;;;;;;;;;;;;;;;15.49;88.30;98999.03;107798;1308;25303;-42
2023/06/16 05:39:30;;;;;;;;;;;;;;;15.54;88.18;98999.17;107807;1308;22624;-42
2023/06/16 05:41:56;;;;;;;;;;;;;;;15.59;87.86;99001.06;107777;1308;22476;-43
2023/06/16 05:44:21;;;;;;;;;;;;;;;15.65;87.36;99001.59;107796;1308;22466;-43
2023/06/16 05:46:46;;;;;;;;;;;;;;;15.71;86.96;99003.04;107825;1308;23381;-43
2023/06/16 05:49:11;;;;;;;;;;;;;;;15.78;86.81;99000.75;107806;1308;22452;-43
2023/06/16 05:51:36;;;;;;;;;;;;;;;15.87;86.43;99000.41;107802;1308;22457;-43
2023/06/16 05:54:02;;;;;;;;;;;;;;;15.96;86.13;99001.64;107835;1308;23266;-43
2023/06/16 05:56:27;;;;;;;;;;;;;;;16.04;85.70;99002.17;107782;1308;22488;-44
2023/06/16 05:58:52;;;;;;;;;;;;;;;16.11;84.75;99002.31;107807;1308;23150;-43
2023/06/16 06:01:17;;;;;;;;;;;;;;;16.14;83.09;99003.31;107761;1308;22430;-43
2023/06/16 06:03:43;;;;;;;;;;;;;;;16.19;82.91;99002.16;107818;1308;22532;-43
2023/06/16 06:06:09;;;;;;;;;;;;;;;16.27;83.30;99003.29;107816;1308;22564;-42
2023/06/16 06:08:34;;;;;;;;;;;;;;;16.34;83.11;99004.28;107799;1308;23234;-43
2023/06/16 06:11:01;;;;;;;;;;;;;;;16.39;82.23;99010.02;107791;1308;22477;-43
2023/06/16 06:13:26;;;;;;;;;;;;;;;16.44;81.39;99011.09;107792;1308;22515;-43
2023/06/16 06:15:51;;;;;;;;;;;;;;;16.51;82.02;99006.21;107770;1308;22465;-43
2023/06/16 06:18:16;;;;;;;;;;;;;;;16.58;81.47;99005.98;107827;1308;22434;-43
2023/06/16 06:20:43;;;;;;;;;;;;;;;16.63;81.26;99004.01;107805;1308;23280;-43
2023/06/16 06:23:08;;;;;;;;;;;;;;;16.69;81.13;99003.84;107818;1308;22458;-43
2023/06/16 06:25:33;;;;;;;;;;;;;;;16.76;80.89;98999.48;107814;1308;22541;-43
2023/06/16 06:27:59;;;;;;;;;;;;;;;16.81;80.58;98997.31;107802;1308;22501;-43
2023/06/16 06:30:27;;;;;;;;;;;;;;;16.84;78.87;99002.06;107798;1308;23299;-43
2023/06/16 06:32:52;;;;;;;;;;;;;;;16.88;79.41;99003.12;107818;1308;23218;-42
2023/06/16 06:35:18;;;;;;;;;;;;;;;16.95;78.97;99007.15;107809;1308;22525;-43
2023/06/16 06:37:43;;;;;;;;;;;;;;;17.03;78.90;99005.56;107766;1302;22502;-43
2023/06/16 06:40:08;;;;;;;;;;;;;;;17.09;78.20;99002.92;107761;1308;23150;-43
2023/06/16 06:42:33;;;;;;;;;;;;;;;17.13;77.95;99003.09;107841;1308;22537;-42
2023/06/16 06:44:59;;;;;;;;;;;;;;;17.13;75.31;99003.06;107789;1308;23092;-43
2023/06/16 06:47:24;;;;;;;;;;;;;;;17.19;75.51;99003.26;107817;1308;22461;-43
2023/06/16 06:49:50;;;;;;;;;;;;;;;17.25;76.67;99002.34;107800;1308;22431;-43
2023/06/16 06:52:15;;;;;;;;;;;;;;;17.30;74.46;99007.32;107806;1308;23322;-42
2023/06/16 06:54:40;;;;;;;;;;;;;;;17.36;75.09;99006.91;107822;1308;23118;-42
2023/06/16 06:57:06;;;;;;;;;;;;;;;17.44;75.68;99007.64;107810;1308;22470;-47
2023/06/16 06:59:31;;;;;;;;;;;;;;;17.47;73.48;99005.23;107817;1308;23597;-42
2023/06/16 07:01:57;;;;;;;;;;;;;;;17.50;74.58;99008.52;107827;1308;23295;-43
2023/06/16 07:04:22;;;;;;;;;;;;;;;17.54;73.57;99009.83;107802;1308;22437;-42
2023/06/16 07:06:47;;;;;;;;;;;;;;;17.58;73.07;99009.61;107804;1308;22447;-42
2023/06/16 07:09:12;;;;;;;;;;;;;;;17.61;72.10;99010.90;107819;1308;23185;-43
2023/06/16 07:11:38;;;;;;;;;;;;;;;17.67;72.46;99008.98;107805;1308;22522;-42
2023/06/16 07:14:04;;;;;;;;;;;;;;;17.75;73.18;99005.24;107791;1308;22472;-42
2023/06/16 07:16:29;;;;;;;;;;;;;;;17.79;71.98;99006.46;107815;1308;22438;-43
2023/06/16 07:18:55;;;;;;;;;;;;;;;17.83;70.36;99009.48;107815;1308;22428;-42
2023/06/16 07:21:20;;;;;;;;;;;;;;;17.88;69.80;99006.60;107781;1308;25206;-42
2023/06/16 07:23:45;;;;;;;;;;;;;;;17.96;72.28;99004.86;107797;1308;22471;-43
2023/06/16 07:26:10;;;;;;;;;;;;;;;18.03;70.34;99000.86;107822;1308;22564;-43
2023/06/16 07:28:35;;;;;;;;;;;;;;;18.11;72.31;99001.67;107790;1308;22449;-43
2023/06/16 07:31:00;;;;;;;;;;;;;;;18.20;71.26;98998.58;107807;1308;23211;-40
2023/06/16 07:33:26;;;;;;;;;;;;;;;18.27;70.87;98996.84;107829;1308;22458;-43
2023/06/16 07:35:51;;;;;;;;;;;;;;;18.34;71.01;98997.25;107808;1308;22430;-41
2023/06/16 07:38:16;;;;;;;;;;;;;;;18.37;68.17;98995.77;107810;1308;22437;-41
2023/06/16 07:40:42;;;;;;;;;;;;;;;18.42;67.16;98995.80;107794;1308;22464;-42
2023/06/16 07:43:07;;;;;;;;;;;;;;;18.50;67.87;98995.95;107814;1308;23159;-42
2023/06/16 07:45:33;;;;;;;;;;;;;;;18.57;69.11;98994.64;107799;1308;22455;-41
2023/06/16 07:47:58;;;;;;;;;;;;;;;18.64;69.98;98988.77;107831;1308;22457;-42
2023/06/16 07:50:24;;;;;;;;;;;;;;;18.72;70.11;98987.33;107826;1308;23202;-41
2023/06/16 07:52:49;;;;;;;;;;;;;;;18.81;69.14;98986.18;107800;1308;22451;-41
2023/06/16 07:55:14;;;;;;;;;;;;;;;18.91;67.90;98990.80;107824;1308;22459;-42
2023/06/16 07:57:40;;;;;;;;;;;;;;;18.97;66.45;98993.86;107840;1308;22512;-43
2023/06/16 08:00:08;;;;;;;;;;;;;;;19.01;64.68;98990.66;107822;1308;22468;-42
2023/06/16 08:02:34;;;;;;;;;;;;;;;19.08;66.03;98989.65;107814;1308;23361;-42
2023/06/16 08:04:59;;;;;;;;;;;;;;;19.18;66.13;98985.93;107819;1308;23294;-42
2023/06/16 08:07:24;;;;;;;;;;;;;;;19.31;66.84;98987.66;107810;1308;22453;-42
2023/06/16 08:09:49;;;;;;;;;;;;;;;19.46;66.98;98990.34;107827;1308;22443;-43
2023/06/16 08:12:15;;;;;;;;;;;;;;;19.55;65.68;98987.50;107778;1308;22487;-40
2023/06/16 08:14:40;;;;;;;;;;;;;;;19.64;65.22;98991.17;107762;1301;23305;-41
2023/06/16 08:17:05;;;;;;;;;;;;;;;19.73;61.62;98988.19;107819;1308;22462;-40
2023/06/16 08:19:30;;;;;;;;;;;;;;;19.86;64.12;98988.55;107717;1309;22457;-40
2023/06/16 08:21:56;;;;;;;;;;;;;;;19.97;61.68;98987.99;107630;1308;22535;-40
2023/06/16 08:24:21;;;;;;;;;;;;;;;20.07;59.34;98990.39;107806;1305;23259;-41
2023/06/16 08:26:46;;;;;;;;;;;;;;;20.23;61.46;98991.77;107804;1308;22547;-41
2023/06/16 08:29:12;;;;;;;;;;;;;;;20.41;61.69;98989.48;107729;1305;22468;-40
2023/06/16 08:31:38;;;;;;;;;;;;;;;20.52;56.23;98990.48;107656;1309;23372;-41
2023/06/16 08:34:03;;;;;;;;;;;;;;;20.66;54.74;98984.16;107754;1304;22450;-41
2023/06/16 08:36:28;;;;;;;;;;;;;;;20.88;58.03;98985.30;107840;1308;24474;-41
2023/06/16 08:38:53;;;;;;;;;;;;;;;20.98;59.52;98986.25;107788;1301;22452;-41
2023/06/16 08:41:19;;;;;;;;;;;;;;;20.98;56.24;98986.94;107794;1308;22504;-41
2023/06/16 08:43:48;;;;;;;;;;;;;;;21.18;56.69;98989.14;107773;1286;22459;-41
2023/06/16 08:46:13;;;;;;;;;;;;;;;21.47;54.28;98989.07;107794;1308;22622;-41
2023/06/16 08:48:39;;;;;;;;;;;;;;;21.78;56.38;98986.42;107763;1298;23415;-40
2023/06/16 08:51:05;;;;;;;;;;;;;;;21.94;54.83;98988.25;107835;1308;23187;-42
2023/06/16 08:53:33;;;;;;;;;;;;;;;21.90;51.82;98987.95;107790;1308;22454;-43
2023/06/16 08:55:58;;;;;;;;;;;;;;;21.97;52.93;98986.14;107788;1308;22547;-43
2023/06/16 08:58:25;;;;;;;;;;;;;;;21.89;51.67;98985.40;107791;1308;22452;-43
2023/06/16 09:00:50;;;;;;;;;;;;;;;22.02;52.77;98982.44;107790;1308;22904;-43
2023/06/16 09:03:17;;;;;;;;;;;;;;;22.29;52.38;98982.05;107802;1308;22432;-44
2023/06/16 09:05:42;;;;;;;;;;;;;;;22.48;50.97;98981.73;107805;1308;22455;-43
2023/06/16 09:08:08;;;;;;;;;;;;;;;22.69;53.19;98975.52;107791;1308;23308;-43
2023/06/16 09:10:34;;;;;;;;;;;;;;;22.58;48.43;98974.15;107775;1308;22469;-43
2023/06/16 09:13:00;;;;;;;;;;;;;;;22.42;48.64;98977.85;107796;1308;22481;-43
2023/06/16 09:15:25;;;;;;;;;;;;;;;22.25;48.39;98978.14;107782;1308;23238;-43
2023/06/16 09:17:51;;;;;;;;;;;;;;;22.14;48.57;98973.59;107798;1308;23246;-43
2023/06/16 09:20:16;;;;;;;;;;;;;;;22.03;49.14;98970.36;107808;1308;22454;-43
2023/06/16 09:22:42;;;;;;;;;;;;;;;22.02;49.45;98969.06;107706;1308;22465;-45
2023/06/16 09:25:11;;;;;;;;;;;;;;;22.40;49.62;98969.40;107787;1308;22445;-43
2023/06/16 09:27:50;;;;;;;;;;;;;;;22.91;48.81;98967.61;107785;1308;22459;-44
2023/06/16 09:30:18;;;;;;;;;;;;;;;23.48;47.85;98971.10;107821;1289;22448;-42
2023/06/16 09:32:44;;;;;;;;;;;;;;;23.67;45.27;98974.13;107791;1308;23155;-43
2023/06/16 09:35:16;;;;;;;;;;;;;;;23.52;44.60;98972.42;107566;1308;22411;-43
2023/06/16 09:37:42;;;;;;;;;;;;;;;23.42;44.49;98967.31;107785;1308;22402;-43
2023/06/16 09:40:09;;;;;;;;;;;;;;;23.54;44.83;98965.98;107794;1308;22407;-43
2023/06/16 09:42:35;;;;;;;;;;;;;;;24.18;44.54;98962.09;107805;1308;22582;-43
2023/06/16 09:45:00;;;;;;;;;;;;;;;24.86;42.73;98959.04;107714;1301;23108;-43
2023/06/16 09:47:29;;;;;;;;;;;;;;;25.60;38.82;98961.48;107665;1308;22438;-42
2023/06/16 09:49:54;;;;;;;;;;;;;;;26.10;37.04;98959.73;107546;1289;22915;-42
2023/06/16 09:52:25;;;;;;;;;;;;;;;26.00;35.92;98955.74;107722;1303;22481;-42
2023/06/16 09:54:50;;;;;;;;;;;;;;;25.74;37.82;98961.17;107676;1302;22783;-43
2023/06/16 09:57:16;;;;;;;;;;;;;;;25.45;38.33;98961.27;107683;1308;22429;-42
2023/06/16 09:59:41;;;;;;;;;;;;;;;25.14;38.29;98957.50;107728;1308;22430;-43
2023/06/16 10:02:07;;;;;;;;;;;;;;;24.85;38.70;98958.55;107802;1308;22513;-42
2023/06/16 10:04:33;;;;;;;;;;;;;;;24.60;39.06;98960.66;107661;1307;22464;-42
2023/06/16 10:07:02;;;;;;;;;;;;;;;24.38;41.69;98963.22;107794;1302;23252;-42
2023/06/16 10:09:32;;;;;;;;;;;;;;;24.17;43.03;98961.59;107716;1308;22433;-42
2023/06/16 10:11:57;;;;;;;;;;;;;;;23.94;43.39;98962.09;107698;1305;22430;-42
2023/06/16 10:14:29;;;;;;;;;;;;;;;23.73;43.26;98957.97;107762;1308;23158;-42
2023/06/16 10:16:54;;;;;;;;;;;;;;;23.57;43.18;98958.77;107757;1308;22544;-42
2023/06/16 10:19:21;;;;;;;;;;;;;;;23.42;44.18;98958.19;107789;1308;22429;-42
2023/06/16 10:21:47;;;;;;;;;;;;;;;23.31;45.92;98953.88;107782;1301;22445;-42
2023/06/16 10:24:13;;;;;;;;;;;;;;;23.21;46.60;98952.55;107768;1308;22420;-42
2023/06/16 10:26:39;;;;;;;;;;;;;;;23.07;44.88;98953.16;107661;1308;22428;-42
2023/06/16 10:29:04;;;;;;;;;;;;;;;22.87;44.25;98958.31;107717;1309;22462;-42
2023/06/16 10:31:30;;;;;;;;;;;;;;;22.76;44.99;98958.81;107678;1308;22474;-42
2023/06/16 10:33:56;;;;;;;;;;;;;;;22.74;46.05;98957.61;107686;1309;22442;-42
2023/06/16 10:36:29;;;;;;;;;;;;;;;22.64;45.69;98956.72;107724;1308;23321;-42
2023/06/16 10:38:56;;;;;;;;;;;;;;;22.60;45.73;98955.59;107725;1309;22604;-42
2023/06/16 10:41:21;;;;;;;;;;;;;;;22.58;45.95;98954.66;107696;1302;23447;-43
2023/06/16 10:43:46;;;;;;;;;;;;;;;22.59;46.48;98955.27;107727;1309;23092;-42
2023/06/16 10:46:15;;;;;;;;;;;;;;;22.57;46.48;98948.19;107698;1305;23316;-42
2023/06/16 10:48:52;;;;;;;;;;;;;;;22.55;46.28;98948.73;107809;1308;22456;-42
2023/06/16 10:51:37;;;;;;;;;;;;;;;22.48;45.15;98949.35;107845;1308;23259;-41
2023/06/16 10:54:03;;;;;;;;;;;;;;;22.51;45.83;98947.23;107832;1308;22453;-42
2023/06/16 10:56:28;;;;;;;;;;;;;;;22.65;45.08;98946.27;107772;1308;22437;-43
2023/06/16 10:58:58;;;;;;;;;;;;;;;22.77;46.57;98942.59;107763;1308;22464;-44
2023/06/16 11:01:24;;;;;;;;;;;;;;;22.81;45.76;98940.33;107826;1308;22515;-43
2023/06/16 11:03:57;;;;;;;;;;;;;;;22.86;46.77;98938.02;107757;1302;22434;-43
2023/06/16 11:06:23;;;;;;;;;;;;;;;22.86;46.62;98933.88;107781;1308;22473;-42
2023/06/16 11:08:50;;;;;;;;;;;;;;;22.91;45.77;98929.44;107826;1308;22428;-41
2023/06/16 11:11:15;;;;;;;;;;;;;;;23.04;45.67;98933.39;107724;1305;23150;-42
2023/06/16 11:13:41;;;;;;;;;;;;;;;23.21;45.91;98932.46;107820;1308;23151;-42
2023/06/16 11:16:07;;;;;;;;;;;;;;;23.28;43.74;98934.35;107769;1302;22426;-43
2023/06/16 11:18:33;;;;;;;;;;;;;;;23.39;44.75;98935.51;107765;1308;22438;-42
2023/06/16 11:20:59;;;;;;;;;;;;;;;23.54;45.70;98936.59;107823;1301;22410;-43
2023/06/16 11:23:25;;;;;;;;;;;;;;;23.66;45.48;98933.09;107748;1308;22443;-44
2023/06/16 11:25:51;;;;;;;;;;;;;;;23.71;44.80;98931.58;107829;1308;22435;-44
2023/06/16 11:28:20;;;;;;;;;;;;;;;23.65;43.62;98924.03;107801;1308;22426;-43
2023/06/16 11:30:45;;;;;;;;;;;;;;;23.68;43.57;98925.01;107773;1302;22411;-44
2023/06/16 11:33:12;;;;;;;;;;;;;;;23.72;44.90;98921.57;107855;1308;22435;-43
2023/06/16 11:35:37;;;;;;;;;;;;;;;23.92;44.61;98926.69;107739;1302;23058;-44
2023/06/16 11:38:03;;;;;;;;;;;;;;;24.05;45.21;98924.03;107807;1308;23422;-43
2023/06/16 11:40:30;;;;;;;;;;;;;;;24.05;42.83;98920.92;107781;1302;22531;-44
2023/06/16 11:43:02;;;;;;;;;;;;;;;24.13;43.45;98921.77;107737;1308;23626;-43
2023/06/16 11:45:28;;;;;;;;;;;;;;;24.18;42.88;98922.79;107809;1306;22769;-43
2023/06/16 11:47:55;;;;;;;;;;;;;;;24.37;42.45;98918.55;107756;1308;22820;-43
2023/06/16 11:50:21;;;;;;;;;;;;;;;24.47;41.52;98916.40;107807;1308;22421;-42
2023/06/16 11:52:46;;;;;;;;;;;;;;;24.57;41.22;98917.64;107779;1308;22429;-42
2023/06/16 11:55:12;;;;;;;;;;;;;;;24.55;41.06;98921.99;107729;1308;22447;-42
2023/06/16 11:57:38;;;;;;;;;;;;;;;24.57;41.66;98919.73;107860;1308;22402;-41
2023/06/16 12:00:04;;;;;;;;;;;;;;;24.63;41.64;98909.84;107835;1307;22436;-42
2023/06/16 12:02:29;;;;;;;;;;;;;;;24.70;41.39;98905.13;107845;1308;22429;-43
2023/06/16 12:04:54;;;;;;;;;;;;;;;24.90;42.35;98905.65;107879;1307;22443;-42
2023/06/16 12:07:20;;;;;;;;;;;;;;;24.88;41.40;98901.53;107799;1301;22432;-43
2023/06/16 12:09:45;;;;;;;;;;;;;;;24.86;41.44;98897.20;107887;1308;22421;-42
2023/06/16 12:12:13;;;;;;;;;;;;;;;24.93;41.74;98898.75;107843;1301;22491;-42
2023/06/16 12:14:41;;;;;;;;;;;;;;;25.12;42.17;98905.64;107826;1308;22419;-42
2023/06/16 12:17:07;;;;;;;;;;;;;;;25.11;40.57;98909.18;107899;1304;23240;-42
2023/06/16 12:19:33;;;;;;;;;;;;;;;25.18;41.46;98906.88;107820;1302;22435;-42
2023/06/16 12:22:00;;;;;;;;;;;;;;;25.29;40.34;98902.98;107764;1308;22481;-42
2023/06/16 12:24:26;;;;;;;;;;;;;;;25.46;41.19;98905.29;107896;1301;22496;-42
2023/06/16 12:26:54;;;;;;;;;;;;;;;25.53;39.83;98911.91;107848;1308;22423;-42
2023/06/16 12:29:20;;;;;;;;;;;;;;;25.65;39.82;98914.22;107918;1307;22426;-42
2023/06/16 12:32:04;;;;;;;;;;;;;;;25.89;41.30;98911.49;107835;1307;22412;-42